createdAt,value
2022-12-15T00:03:52.312Z,14.90
2022-12-15T00:09:14.485Z,14.82
2022-12-15T00:14:36.131Z,14.40
2022-12-15T00:19:56.924Z,15.32
2022-12-15T00:25:18.100Z,16.30
2022-12-15T00:30:38.645Z,15.60
2022-12-15T00:35:59.572Z,14.63
2022-12-15T00:41:02.100Z,15.20
2022-12-15T00:46:23.632Z,16.23
2022-12-15T00:51:45.053Z,15.53
2022-12-15T00:57:05.770Z,16.45
2022-12-15T01:02:26.880Z,16.48
2022-12-15T01:07:50.166Z,16.10
2022-12-15T01:13:11.371Z,15.88
2022-12-15T01:18:32.090Z,15.67
2022-12-15T01:23:35.456Z,15.65
2022-12-15T01:28:37.576Z,15.40
2022-12-15T01:33:42.628Z,15.17
2022-12-15T01:38:49.311Z,16.62
2022-12-15T01:43:54.426Z,16.00
2022-12-15T01:49:11.247Z,16.58
2022-12-15T01:54:43.828Z,16.30
2022-12-15T01:59:51.626Z,15.83
2022-12-15T02:04:56.781Z,17.08
2022-12-15T02:10:02.873Z,16.63
2022-12-15T02:15:13.787Z,16.20
2022-12-15T02:20:38.141Z,16.23
2022-12-15T02:25:43.358Z,16.33
2022-12-15T02:31:11.076Z,16.40
2022-12-15T02:36:26.394Z,17.00
2022-12-15T02:41:35.648Z,15.82
2022-12-15T02:46:37.867Z,16.77
2022-12-15T02:51:52.063Z,16.63
2022-12-15T02:57:40.503Z,16.80
2022-12-15T03:02:47.486Z,16.57
2022-12-15T03:07:51.825Z,16.92
2022-12-15T03:12:54.846Z,17.75
2022-12-15T03:17:56.975Z,16.67
2022-12-15T03:22:59.122Z,16.50
2022-12-15T03:28:01.477Z,17.37
2022-12-15T03:33:03.919Z,17.70
2022-12-15T03:38:06.168Z,17.23
2022-12-15T03:43:08.313Z,17.27
2022-12-15T03:48:10.389Z,18.27
2022-12-15T03:53:12.478Z,18.03
2022-12-15T03:58:14.689Z,18.15
2022-12-15T04:03:16.838Z,19.20
2022-12-15T04:08:18.998Z,19.52
2022-12-15T04:13:21.134Z,18.62
2022-12-15T04:18:23.312Z,19.10
2022-12-15T04:23:25.406Z,19.23
2022-12-15T04:28:45.838Z,19.80
2022-12-15T04:34:10.035Z,18.98
2022-12-15T04:39:30.722Z,20.42
2022-12-15T04:44:51.424Z,20.47
2022-12-15T04:50:12.226Z,20.90
2022-12-15T04:55:32.851Z,21.50
2022-12-15T05:00:55.367Z,20.42
2022-12-15T05:06:16.954Z,21.55
2022-12-15T05:11:37.972Z,21.23
2022-12-15T05:16:58.734Z,21.23
2022-12-15T05:22:19.491Z,22.90
2022-12-15T05:27:40.219Z,22.48
2022-12-15T05:32:42.292Z,21.50
2022-12-15T05:37:44.455Z,23.67
2022-12-15T05:42:49.924Z,22.60
2022-12-15T05:47:53.171Z,25.02
2022-12-15T05:52:58.260Z,24.63
2022-12-15T05:58:00.388Z,25.37
2022-12-15T06:03:03.000Z,23.63
2022-12-15T06:08:05.632Z,22.50
2022-12-15T06:13:07.720Z,22.70
2022-12-15T06:18:10.305Z,23.67
2022-12-15T06:23:12.395Z,24.25
2022-12-15T06:28:14.579Z,23.13
2022-12-15T06:33:16.700Z,23.35
2022-12-15T06:38:18.783Z,23.75
2022-12-15T06:43:20.860Z,22.02
2022-12-15T06:48:23.986Z,22.73
2022-12-15T06:53:26.109Z,24.97
2022-12-15T06:58:28.435Z,24.90
2022-12-15T07:03:31.077Z,22.48
2022-12-15T07:08:40.953Z,22.75
2022-12-15T07:13:43.682Z,25.25
2022-12-15T07:18:45.833Z,23.40
2022-12-15T07:23:56.698Z,24.15
2022-12-15T07:28:59.262Z,23.85
2022-12-15T07:34:01.926Z,24.87
2022-12-15T07:39:04.978Z,23.83
2022-12-15T07:44:07.666Z,25.43
2022-12-15T07:49:10.438Z,22.70
2022-12-15T07:54:13.732Z,24.05
2022-12-15T07:59:15.921Z,23.77
2022-12-15T08:04:18.728Z,26.48
2022-12-15T08:09:21.147Z,25.53
2022-12-15T08:14:23.660Z,27.08
2022-12-15T08:19:26.279Z,31.87
2022-12-15T08:24:28.497Z,30.42
2022-12-15T08:29:50.803Z,29.73
2022-12-15T08:34:52.724Z,29.90
2022-12-15T08:39:54.859Z,27.77
2022-12-15T08:44:57.012Z,28.45
2022-12-15T08:49:59.455Z,28.27
2022-12-15T08:55:01.574Z,25.25
2022-12-15T09:00:05.484Z,25.87
2022-12-15T09:05:11.065Z,22.67
2022-12-15T09:10:13.234Z,23.50
2022-12-15T09:15:15.440Z,23.00
2022-12-15T09:20:18.071Z,27.05
2022-12-15T09:25:20.538Z,23.77
2022-12-15T09:30:22.638Z,23.30
2022-12-15T09:35:27.699Z,22.62
2022-12-15T09:40:30.695Z,21.77
2022-12-15T09:45:43.586Z,24.42
2022-12-15T09:50:48.798Z,24.10
2022-12-15T09:56:01.873Z,23.27
2022-12-15T10:01:21.211Z,24.63
2022-12-15T10:06:33.531Z,24.73
2022-12-15T10:11:50.962Z,22.25
2022-12-15T10:17:22.548Z,23.97
2022-12-15T10:22:28.715Z,26.23
2022-12-15T10:27:58.457Z,24.30
2022-12-15T10:33:20.983Z,24.80
2022-12-15T10:38:42.387Z,25.00
2022-12-15T10:43:47.113Z,24.77
2022-12-15T10:48:54.182Z,24.83
2022-12-15T10:54:13.020Z,24.00
2022-12-15T10:59:41.713Z,23.83
2022-12-15T11:04:57.520Z,24.45
2022-12-15T11:10:01.627Z,24.17
2022-12-15T11:15:23.708Z,24.20
2022-12-15T11:20:35.310Z,23.62
2022-12-15T11:25:45.330Z,23.75
2022-12-15T11:30:57.185Z,23.45
2022-12-15T11:36:23.848Z,24.10
2022-12-15T11:41:53.898Z,24.00
2022-12-15T11:47:05.363Z,24.77
2022-12-15T11:52:33.577Z,22.23
2022-12-15T11:57:50.911Z,23.83
2022-12-15T12:03:35.386Z,24.40
2022-12-15T12:09:02.008Z,23.58
2022-12-15T12:14:21.523Z,24.40
2022-12-15T12:19:45.281Z,23.27
2022-12-15T12:25:18.827Z,24.05
2022-12-15T12:30:28.247Z,23.77
2022-12-15T12:35:44.555Z,25.17
2022-12-15T12:41:37.721Z,25.75
2022-12-15T12:46:49.093Z,24.70
2022-12-15T12:57:11.833Z,26.13
2022-12-15T13:02:26.084Z,27.35
2022-12-15T13:07:37.786Z,27.17
2022-12-15T13:12:54.480Z,26.75
2022-12-15T13:18:16.433Z,25.98
2022-12-15T13:23:21.224Z,27.30
2022-12-15T13:28:29.114Z,25.35
2022-12-15T13:33:31.635Z,25.73
2022-12-15T13:38:53.584Z,24.80
2022-12-15T13:43:58.848Z,26.15
2022-12-15T13:50:06.236Z,27.93
2022-12-15T13:55:24.109Z,25.00
2022-12-15T14:00:29.733Z,25.95
2022-12-15T14:05:31.970Z,24.50
2022-12-15T14:10:52.127Z,26.55
2022-12-15T14:16:07.392Z,25.17
2022-12-15T14:21:24.756Z,26.55
2022-12-15T14:26:30.990Z,23.95
2022-12-15T14:31:33.338Z,23.15
2022-12-15T14:36:36.165Z,26.35
2022-12-15T14:41:44.979Z,28.40
2022-12-15T14:46:56.583Z,26.60
2022-12-15T14:52:03.198Z,28.27
2022-12-15T14:57:20.317Z,25.67
2022-12-15T15:02:30.302Z,26.37
2022-12-15T15:07:34.423Z,26.50
2022-12-15T15:12:47.292Z,28.15
2022-12-15T15:17:52.541Z,28.30
2022-12-15T15:23:19.371Z,28.87
2022-12-15T15:28:27.514Z,26.37
2022-12-15T15:33:29.726Z,25.97
2022-12-15T15:38:35.228Z,27.02
2022-12-15T15:43:37.782Z,26.85
2022-12-15T15:48:45.139Z,25.35
2022-12-15T15:53:47.744Z,26.20
2022-12-15T15:58:49.874Z,24.67
2022-12-15T16:03:52.102Z,26.60
2022-12-15T16:08:54.840Z,29.20
2022-12-15T16:13:56.959Z,28.73
2022-12-15T16:18:59.806Z,26.87
2022-12-15T16:24:10.098Z,25.13
2022-12-15T16:29:17.439Z,22.92
2022-12-15T16:34:21.710Z,24.02
2022-12-15T16:39:35.058Z,20.77
2022-12-15T16:44:37.641Z,22.30
2022-12-15T16:49:40.605Z,21.93
2022-12-15T16:54:50.690Z,23.27
2022-12-15T16:59:52.854Z,23.20
2022-12-15T17:04:55.948Z,21.48
2022-12-15T17:09:58.403Z,23.25
2022-12-15T17:15:02.520Z,19.97
2022-12-15T17:20:28.649Z,20.35
2022-12-15T17:31:04.167Z,20.50
2022-12-15T17:36:16.940Z,19.25
2022-12-15T17:41:35.413Z,21.60
2022-12-15T17:46:41.192Z,20.20
2022-12-15T17:51:44.350Z,21.10
2022-12-15T17:56:48.907Z,21.12
2022-12-15T18:01:52.226Z,21.42
2022-12-15T18:07:01.249Z,22.63
2022-12-15T18:12:15.333Z,24.58
2022-12-15T18:17:17.727Z,21.60
2022-12-15T18:22:23.534Z,21.70
2022-12-15T18:27:28.265Z,22.05
2022-12-15T18:32:30.745Z,22.63
2022-12-15T18:37:34.839Z,21.85
2022-12-15T18:42:37.020Z,22.70
2022-12-15T18:47:39.752Z,19.35
2022-12-15T18:52:42.159Z,22.13
2022-12-15T18:57:44.426Z,20.47
2022-12-15T19:02:46.629Z,20.02
2022-12-15T19:07:48.851Z,19.00
2022-12-15T19:12:56.861Z,18.52
2022-12-15T19:18:19.131Z,17.98
2022-12-15T19:23:22.180Z,20.03
2022-12-15T19:28:24.625Z,19.40
2022-12-15T19:33:26.782Z,16.75
2022-12-15T19:38:32.961Z,15.15
2022-12-15T19:43:35.636Z,15.23
2022-12-15T19:48:38.461Z,17.20
2022-12-15T19:53:41.116Z,16.65
2022-12-15T19:58:43.884Z,17.45
2022-12-15T20:03:49.533Z,18.45
2022-12-15T20:08:54.656Z,16.90
2022-12-15T20:14:01.548Z,16.70
2022-12-15T20:19:03.659Z,15.38
2022-12-15T20:24:09.669Z,17.30
2022-12-15T20:29:45.239Z,15.82
2022-12-15T20:34:48.128Z,15.90
2022-12-15T20:39:54.051Z,21.57
2022-12-15T20:44:59.426Z,18.65
2022-12-15T20:50:01.670Z,14.55
2022-12-15T20:55:09.825Z,14.07
2022-12-15T21:00:13.379Z,13.95
2022-12-15T21:05:18.775Z,13.83
2022-12-15T21:10:21.529Z,13.57
2022-12-15T21:15:23.682Z,13.07
2022-12-15T21:20:25.847Z,12.05
2022-12-15T21:25:29.161Z,11.45
2022-12-15T21:30:31.356Z,11.70
2022-12-15T21:35:34.209Z,10.30
2022-12-15T21:40:36.340Z,11.27
2022-12-15T21:45:38.444Z,10.82
2022-12-15T21:50:43.327Z,11.12
2022-12-15T21:55:47.287Z,11.37
2022-12-15T22:00:49.453Z,12.23
2022-12-15T22:05:51.641Z,11.90
2022-12-15T22:10:54.186Z,11.25
2022-12-15T22:15:57.002Z,11.38
2022-12-15T22:20:59.216Z,11.30
2022-12-15T22:26:02.065Z,11.93
2022-12-15T22:31:04.569Z,12.37
2022-12-15T22:36:07.127Z,10.45
2022-12-15T22:41:19.592Z,10.02
2022-12-15T22:46:24.242Z,10.80
2022-12-15T22:51:26.415Z,11.52
2022-12-15T22:56:36.663Z,10.95
2022-12-15T23:01:39.071Z,11.05
2022-12-15T23:06:41.467Z,11.20
2022-12-15T23:11:44.125Z,10.53
2022-12-15T23:16:46.538Z,11.23
2022-12-15T23:21:48.711Z,11.40
2022-12-15T23:26:50.843Z,10.93
2022-12-15T23:31:53.862Z,11.07
2022-12-15T23:36:55.919Z,10.43
2022-12-15T23:41:58.014Z,9.98
2022-12-15T23:47:00.201Z,10.30
2022-12-15T23:52:02.378Z,10.43
2022-12-15T23:57:04.723Z,10.15
